Terminal Aerodrome Forecast
Issued by NWS

Home | Current Version | Previous Version | Text Only | Print | Product List | Glossary On
Versions: 1 2 3 4 5 6 7 8 9 10 11 12 13 14 15 16 17 18 19 20 21 22 23 24 25 26 27 28 29 30 31 32 33 34 35 36 37 38 39
770
FTUS41 KBOX 172320
TAFACK
TAF
KACK 172320Z 1800/1824 20004KT P6SM SKC
     FM182000 17013KT 4SM BR OVC050
     FM182300 17015KT 1SM -SHRA BR BKN008 OVC040=

USA.gov is the U.S. government's official web portal to all federal, state and local government web resources and services.